Time;durP1;ratioP1;P1;durP2;ratioP2;P2;SDS_P1;SDS_P2;PMS_P1;PMS_P2;Temp;Humidity;BMP_temperature;BMP_pressure;BME280_temperature;BME280_humidity;BME280_pressure;Samples;Min_cycle;Max_cycle;Signal;HPM_P1;HPM_P2
2022/06/19 00:01:11;;;;;;;;;;;;;;;;;;5033828;28;20015;-76
2022/06/19 00:03:40;;;;;;;;;;;;;;;;;;5036402;28;19925;-76
2022/06/19 00:06:08;;;;;;;;;;;;;;;;;;5035696;28;19925;-76
2022/06/19 00:08:34;;;;;;;;;;;;;;;;;;5032085;28;19931;-76
2022/06/19 00:11:01;;;;;;;;;;;;;;;;;;5031610;28;19925;-77
2022/06/19 00:13:28;;;;;;;;;;;;;;;;;;5031790;28;19931;-77
2022/06/19 00:15:55;;;;;;;;;;;;;;;;;;5032066;28;20379;-77
2022/06/19 00:18:21;;;;;;;;;;;;;;;;;;5032015;28;19969;-77
2022/06/19 00:20:48;;;;;;;;;;;;;;;;;;5031596;28;19925;-76
2022/06/19 00:23:16;;;;;;;;;;;;;;;;;;5032140;28;19925;-77
2022/06/19 00:25:42;;;;;;;;;;;;;;;;;;5031926;28;20008;-77
2022/06/19 00:28:08;;;;;;;;;;;;;;;;;;5031980;28;19928;-77
2022/06/19 00:30:35;;;;;;;;;;;;;;;;;;5031390;28;19925;-77
2022/06/19 00:33:01;;;;;;;;;;;;;;;;;;5031929;28;20024;-77
2022/06/19 00:35:28;;;;;;;;;;;;;;;;;;5031716;28;20007;-77
2022/06/19 00:37:55;;;;;;;;;;;;;;;;;;5031614;28;20366;-77
2022/06/19 00:40:23;;;;;;;;;;;;;;;;;;5031131;28;19925;-77
2022/06/19 00:42:49;;;;;;;;;;;;;;;;;;5031773;28;20471;-77
2022/06/19 00:45:29;;;;;;;;;;;;;;;;;;5031925;28;19979;-76
2022/06/19 00:47:56;;;;;;;;;;;;;;;;;;5031847;28;19972;-77
2022/06/19 00:50:24;;;;;;;;;;;;;;;;;;5033476;28;20004;-77
2022/06/19 00:52:51;;;;;;;;;;;;;;;;;;5035418;28;19925;-78
2022/06/19 00:55:19;;;;;;;;;;;;;;;;;;5036596;28;20283;-77
2022/06/19 00:57:50;;;;;;;;;;;;;;;;;;5037167;28;20019;-76
2022/06/19 01:00:23;;;;;;;;;;;;;;;;;;5036541;28;19932;-76
2022/06/19 01:02:50;;;;;;;;;;;;;;;;;;5035543;28;19932;-76
2022/06/19 01:05:17;;;;;;;;;;;;;;;;;;5035301;28;19936;-76
2022/06/19 01:07:44;;;;;;;;;;;;;;;;;;5035224;28;19936;-76
2022/06/19 01:10:12;;;;;;;;;;;;;;;;;;5034368;28;19925;-76
2022/06/19 01:12:42;;;;;;;;;;;;;;;;;;5034934;28;20361;-76
2022/06/19 01:15:12;;;;;;;;;;;;;;;;;;5035130;28;19932;-76
2022/06/19 01:17:38;;;;;;;;;;;;;;;;;;5034826;28;20485;-76
2022/06/19 01:20:06;;;;;;;;;;;;;;;;;;5034466;28;19980;-76
2022/06/19 01:22:36;;;;;;;;;;;;;;;;;;5034836;28;20295;-76
2022/06/19 01:25:07;;;;;;;;;;;;;;;;;;5035076;28;19929;-76
2022/06/19 01:30:19;;;;;;;;;;;;;;;;;;5034344;28;20390;-76
2022/06/19 01:32:47;;;;;;;;;;;;;;;;;;5034669;28;20015;-76
2022/06/19 01:35:14;;;;;;;;;;;;;;;;;;5035759;28;19968;-76
2022/06/19 01:37:41;;;;;;;;;;;;;;;;;;5034891;28;20016;-76
2022/06/19 01:40:12;;;;;;;;;;;;;;;;;;5034120;28;20470;-76
2022/06/19 01:42:39;;;;;;;;;;;;;;;;;;5034620;28;19929;-76
2022/06/19 01:45:06;;;;;;;;;;;;;;;;;;5053864;22;20016;-77
2022/06/19 01:47:33;;;;;;;;;;;;;;;;;;5016167;28;20032;-78
2022/06/19 01:50:00;;;;;;;;;;;;;;;;;;5017725;28;19931;-78
2022/06/19 01:52:29;;;;;;;;;;;;;;;;;;5017938;28;19925;-78
2022/06/19 01:55:00;;;;;;;;;;;;;;;;;;5017987;28;20003;-78
2022/06/19 01:57:28;;;;;;;;;;;;;;;;;;5016193;28;19933;-77
2022/06/19 01:59:54;;;;;;;;;;;;;;;;;;5014555;28;19969;-77
2022/06/19 02:02:23;;;;;;;;;;;;;;;;;;5013877;28;19967;-77
2022/06/19 02:04:51;;;;;;;;;;;;;;;;;;5016872;28;19932;-78
2022/06/19 02:07:20;;;;;;;;;;;;;;;;;;5016852;28;19930;-78
2022/06/19 02:09:47;;;;;;;;;;;;;;;;;;5016256;28;19995;-77
2022/06/19 02:12:14;;;;;;;;;;;;;;;;;;5014629;28;19980;-77
2022/06/19 02:14:42;;;;;;;;;;;;;;;;;;5014494;28;20020;-77
2022/06/19 02:17:11;;;;;;;;;;;;;;;;;;5014937;28;19979;-77
2022/06/19 02:19:38;;;;;;;;;;;;;;;;;;5014374;28;20008;-78
2022/06/19 02:22:10;;;;;;;;;;;;;;;;;;5015980;28;19961;-77
2022/06/19 02:24:38;;;;;;;;;;;;;;;;;;5020800;28;19956;-78
2022/06/19 02:27:05;;;;;;;;;;;;;;;;;;5019842;28;19925;-78
2022/06/19 02:29:32;;;;;;;;;;;;;;;;;;5019189;28;19980;-78
2022/06/19 02:32:00;;;;;;;;;;;;;;;;;;5020439;28;20020;-77
2022/06/19 02:34:28;;;;;;;;;;;;;;;;;;5015786;28;19976;-76
2022/06/19 02:36:56;;;;;;;;;;;;;;;;;;5016427;28;20016;-78
2022/06/19 02:39:28;;;;;;;;;;;;;;;;;;5015732;28;20300;-78
2022/06/19 02:41:58;;;;;;;;;;;;;;;;;;5015801;28;20028;-78
2022/06/19 02:44:30;;;;;;;;;;;;;;;;;;5015176;28;19947;-78
2022/06/19 02:46:56;;;;;;;;;;;;;;;;;;5015268;28;20498;-79
2022/06/19 02:49:24;;;;;;;;;;;;;;;;;;5017435;28;19925;-77
2022/06/19 02:51:51;;;;;;;;;;;;;;;;;;5021421;28;19988;-79
2022/06/19 02:54:17;;;;;;;;;;;;;;;;;;5020497;28;19987;-77
2022/06/19 02:56:43;;;;;;;;;;;;;;;;;;5013739;28;19925;-77
2022/06/19 02:59:10;;;;;;;;;;;;;;;;;;5020899;28;20008;-77
2022/06/19 03:01:36;;;;;;;;;;;;;;;;;;5032746;28;19979;-77
2022/06/19 03:04:03;;;;;;;;;;;;;;;;;;5033035;28;19931;-77
2022/06/19 03:06:31;;;;;;;;;;;;;;;;;;5032751;28;19931;-78
2022/06/19 03:08:57;;;;;;;;;;;;;;;;;;5033127;28;19947;-77
2022/06/19 03:11:23;;;;;;;;;;;;;;;;;;5032801;28;19925;-77
2022/06/19 03:13:50;;;;;;;;;;;;;;;;;;5032815;28;19925;-77
2022/06/19 03:16:17;;;;;;;;;;;;;;;;;;5032719;28;19926;-77
2022/06/19 03:18:43;;;;;;;;;;;;;;;;;;5032419;28;20400;-77
2022/06/19 03:21:10;;;;;;;;;;;;;;;;;;5032577;28;19935;-77
2022/06/19 03:23:37;;;;;;;;;;;;;;;;;;5032674;28;19965;-77
2022/06/19 03:26:04;;;;;;;;;;;;;;;;;;5032645;28;20023;-77
2022/06/19 03:28:30;;;;;;;;;;;;;;;;;;5032622;28;20412;-77
2022/06/19 03:30:57;;;;;;;;;;;;;;;;;;5032506;28;20453;-77
2022/06/19 03:33:23;;;;;;;;;;;;;;;;;;5032265;28;19932;-77
2022/06/19 03:35:50;;;;;;;;;;;;;;;;;;5032819;28;20027;-77
2022/06/19 03:38:17;;;;;;;;;;;;;;;;;;5032605;28;19971;-77
2022/06/19 03:40:45;;;;;;;;;;;;;;;;;;5032295;28;19933;-77
2022/06/19 03:43:12;;;;;;;;;;;;;;;;;;5032296;28;20051;-77
2022/06/19 03:45:38;;;;;;;;;;;;;;;;;;5032285;28;19925;-78
2022/06/19 03:48:05;;;;;;;;;;;;;;;;;;5032236;28;19929;-76
2022/06/19 03:50:32;;;;;;;;;;;;;;;;;;5032354;28;19925;-77
2022/06/19 03:52:58;;;;;;;;;;;;;;;;;;5032564;28;20012;-77
2022/06/19 03:55:25;;;;;;;;;;;;;;;;;;5032077;28;20100;-77
2022/06/19 03:57:52;;;;;;;;;;;;;;;;;;5032489;28;20016;-78
2022/06/19 04:00:19;;;;;;;;;;;;;;;;;;5014827;28;19926;-77
2022/06/19 04:02:46;;;;;;;;;;;;;;;;;;5012497;28;20414;-77
2022/06/19 04:05:13;;;;;;;;;;;;;;;;;;5012448;28;20004;-77
2022/06/19 04:07:43;;;;;;;;;;;;;;;;;;5012475;28;19932;-78
2022/06/19 04:10:09;;;;;;;;;;;;;;;;;;5012284;28;19964;-77
2022/06/19 04:12:36;;;;;;;;;;;;;;;;;;5012585;28;19926;-77
2022/06/19 04:15:04;;;;;;;;;;;;;;;;;;5012432;28;19961;-77
2022/06/19 04:17:31;;;;;;;;;;;;;;;;;;5012610;28;20013;-77
2022/06/19 04:19:57;;;;;;;;;;;;;;;;;;5012193;28;19931;-77
2022/06/19 04:22:24;;;;;;;;;;;;;;;;;;5012798;28;20376;-78
2022/06/19 04:24:50;;;;;;;;;;;;;;;;;;5014483;28;19973;-78
2022/06/19 04:27:17;;;;;;;;;;;;;;;;;;5016444;28;19977;-77
2022/06/19 04:29:43;;;;;;;;;;;;;;;;;;5016682;28;19999;-77
2022/06/19 04:32:11;;;;;;;;;;;;;;;;;;5016821;28;19976;-78
2022/06/19 04:34:37;;;;;;;;;;;;;;;;;;5016283;28;19925;-77
2022/06/19 04:37:04;;;;;;;;;;;;;;;;;;5017473;28;20380;-77
2022/06/19 04:39:30;;;;;;;;;;;;;;;;;;5016648;28;20020;-77
2022/06/19 04:41:57;;;;;;;;;;;;;;;;;;5016444;28;19980;-77
2022/06/19 04:44:23;;;;;;;;;;;;;;;;;;5015958;28;20439;-78
2022/06/19 04:46:50;;;;;;;;;;;;;;;;;;5016177;28;19933;-77
2022/06/19 04:49:18;;;;;;;;;;;;;;;;;;5015545;28;19975;-77
2022/06/19 04:51:44;;;;;;;;;;;;;;;;;;5015993;28;19925;-77
2022/06/19 04:54:11;;;;;;;;;;;;;;;;;;5016066;28;20400;-77
2022/06/19 04:56:38;;;;;;;;;;;;;;;;;;5015738;28;20016;-77
2022/06/19 04:59:05;;;;;;;;;;;;;;;;;;5022122;28;20390;-77
2022/06/19 05:01:33;;;;;;;;;;;;;;;;;;5035287;28;19990;-76
2022/06/19 05:04:00;;;;;;;;;;;;;;;;;;5035249;28;20446;-77
2022/06/19 05:06:28;;;;;;;;;;;;;;;;;;5035227;28;19929;-77
2022/06/19 05:08:54;;;;;;;;;;;;;;;;;;5035206;28;19925;-77
2022/06/19 05:11:22;;;;;;;;;;;;;;;;;;5034925;28;20016;-77
2022/06/19 05:13:48;;;;;;;;;;;;;;;;;;5035222;28;19925;-77
2022/06/19 05:16:16;;;;;;;;;;;;;;;;;;5035742;28;19947;-77
2022/06/19 05:18:43;;;;;;;;;;;;;;;;;;5034902;28;19925;-77
2022/06/19 05:21:09;;;;;;;;;;;;;;;;;;5034557;28;19968;-77
2022/06/19 05:23:39;;;;;;;;;;;;;;;;;;5034725;28;20012;-76
2022/06/19 05:26:07;;;;;;;;;;;;;;;;;;5035534;28;19952;-76
2022/06/19 05:28:34;;;;;;;;;;;;;;;;;;5034995;28;20303;-76
2022/06/19 05:31:01;;;;;;;;;;;;;;;;;;5034912;28;19932;-78
2022/06/19 05:33:28;;;;;;;;;;;;;;;;;;5034757;28;19925;-77
2022/06/19 05:35:55;;;;;;;;;;;;;;;;;;5035722;28;19931;-78
2022/06/19 05:38:22;;;;;;;;;;;;;;;;;;5036539;28;19991;-78
2022/06/19 05:40:52;;;;;;;;;;;;;;;;;;5035836;28;19967;-78
2022/06/19 05:43:18;;;;;;;;;;;;;;;;;;5035729;28;19925;-78
2022/06/19 05:45:49;;;;;;;;;;;;;;;;;;5035431;28;20028;-78
2022/06/19 05:48:16;;;;;;;;;;;;;;;;;;5035120;28;19925;-78
2022/06/19 05:50:42;;;;;;;;;;;;;;;;;;5034640;28;19925;-78
2022/06/19 05:53:09;;;;;;;;;;;;;;;;;;5034454;28;19951;-78
2022/06/19 05:55:35;;;;;;;;;;;;;;;;;;5035473;28;20078;-77
2022/06/19 05:58:03;;;;;;;;;;;;;;;;;;5034860;28;19929;-76
2022/06/19 06:00:29;;;;;;;;;;;;;;;;;;5017293;28;19979;-78
2022/06/19 06:02:56;;;;;;;;;;;;;;;;;;5014504;28;19925;-78
2022/06/19 06:05:22;;;;;;;;;;;;;;;;;;5014351;28;19965;-77
2022/06/19 06:07:49;;;;;;;;;;;;;;;;;;5014690;28;19936;-78
2022/06/19 06:10:16;;;;;;;;;;;;;;;;;;5013855;28;19933;-77
2022/06/19 06:12:42;;;;;;;;;;;;;;;;;;5014462;28;19926;-78
2022/06/19 06:15:11;;;;;;;;;;;;;;;;;;5014275;28;20024;-76
2022/06/19 06:17:37;;;;;;;;;;;;;;;;;;5014358;28;20012;-77
2022/06/19 06:20:04;;;;;;;;;;;;;;;;;;5014776;28;19932;-77
2022/06/19 06:22:31;;;;;;;;;;;;;;;;;;5013941;28;19979;-76
2022/06/19 06:24:57;;;;;;;;;;;;;;;;;;5014097;28;20020;-76
2022/06/19 06:27:24;;;;;;;;;;;;;;;;;;5014327;28;19932;-78
2022/06/19 06:29:51;;;;;;;;;;;;;;;;;;5015983;28;19925;-76
2022/06/19 06:32:18;;;;;;;;;;;;;;;;;;5014896;28;19980;-77
2022/06/19 06:34:45;;;;;;;;;;;;;;;;;;5014704;28;20067;-78
2022/06/19 06:37:11;;;;;;;;;;;;;;;;;;5014831;28;20340;-78
2022/06/19 06:39:38;;;;;;;;;;;;;;;;;;5015773;28;20080;-79
2022/06/19 06:42:05;;;;;;;;;;;;;;;;;;5016114;28;20455;-79
2022/06/19 06:44:32;;;;;;;;;;;;;;;;;;5017429;28;20012;-78
2022/06/19 06:47:01;;;;;;;;;;;;;;;;;;5015090;28;20423;-79
2022/06/19 06:49:29;;;;;;;;;;;;;;;;;;5014794;28;20016;-79
2022/06/19 06:51:55;;;;;;;;;;;;;;;;;;5016601;28;19925;-77
2022/06/19 06:54:21;;;;;;;;;;;;;;;;;;5013479;28;19925;-77
2022/06/19 06:56:48;;;;;;;;;;;;;;;;;;5014289;28;20595;-78
2022/06/19 06:59:15;;;;;;;;;;;;;;;;;;5028102;28;19971;-80
2022/06/19 07:01:41;;;;;;;;;;;;;;;;;;5033217;28;19925;-78
2022/06/19 07:04:09;;;;;;;;;;;;;;;;;;5033248;28;20318;-77
2022/06/19 07:06:37;;;;;;;;;;;;;;;;;;5033217;28;20406;-77
2022/06/19 07:09:04;;;;;;;;;;;;;;;;;;5033193;28;19931;-78
2022/06/19 07:11:35;;;;;;;;;;;;;;;;;;5038837;28;19932;-78
2022/06/19 07:14:01;;;;;;;;;;;;;;;;;;5040213;28;19975;-79
2022/06/19 07:16:28;;;;;;;;;;;;;;;;;;5040575;28;19929;-79
2022/06/19 07:18:54;;;;;;;;;;;;;;;;;;5040471;28;19936;-79
2022/06/19 07:21:21;;;;;;;;;;;;;;;;;;5040989;28;19987;-80
2022/06/19 07:23:49;;;;;;;;;;;;;;;;;;5041347;28;19992;-78
2022/06/19 07:26:16;;;;;;;;;;;;;;;;;;5041527;28;19925;-79
2022/06/19 07:28:43;;;;;;;;;;;;;;;;;;5040807;28;19952;-79
2022/06/19 07:31:10;;;;;;;;;;;;;;;;;;5039649;28;19925;-77
2022/06/19 07:33:38;;;;;;;;;;;;;;;;;;5039589;28;19931;-79
2022/06/19 07:36:05;;;;;;;;;;;;;;;;;;5039646;28;20012;-78
2022/06/19 07:38:31;;;;;;;;;;;;;;;;;;5039554;28;20020;-79
2022/06/19 07:40:59;;;;;;;;;;;;;;;;;;5039216;28;20412;-79
2022/06/19 07:43:26;;;;;;;;;;;;;;;;;;5040214;28;20015;-77
2022/06/19 07:45:53;;;;;;;;;;;;;;;;;;5043135;22;19925;-75
2022/06/19 07:51:04;;;;;;;;;;;;;;;;;;5033564;28;20276;-76
2022/06/19 07:53:30;;;;;;;;;;;;;;;;;;5033297;28;20379;-76
2022/06/19 07:55:58;;;;;;;;;;;;;;;;;;5033048;28;20007;-76
2022/06/19 07:58:25;;;;;;;;;;;;;;;;;;5033951;28;19928;-76
2022/06/19 08:00:52;;;;;;;;;;;;;;;;;;5035857;28;19971;-76
2022/06/19 08:03:21;;;;;;;;;;;;;;;;;;5037798;28;20579;-76
2022/06/19 08:05:47;;;;;;;;;;;;;;;;;;5037197;28;19925;-76
2022/06/19 08:08:17;;;;;;;;;;;;;;;;;;5036479;28;19972;-75
2022/06/19 08:10:45;;;;;;;;;;;;;;;;;;5036168;28;19984;-76
2022/06/19 08:13:13;;;;;;;;;;;;;;;;;;5036583;28;19932;-76
2022/06/19 08:15:39;;;;;;;;;;;;;;;;;;5036982;28;20008;-76
2022/06/19 08:18:06;;;;;;;;;;;;;;;;;;5036392;28;20012;-76
2022/06/19 08:20:32;;;;;;;;;;;;;;;;;;5035942;28;19995;-76
2022/06/19 08:22:59;;;;;;;;;;;;;;;;;;5036500;28;19989;-76
2022/06/19 08:25:25;;;;;;;;;;;;;;;;;;5036307;28;19964;-75
2022/06/19 08:27:53;;;;;;;;;;;;;;;;;;5036672;28;20383;-76
2022/06/19 08:30:22;;;;;;;;;;;;;;;;;;5036958;28;20339;-76
2022/06/19 08:32:48;;;;;;;;;;;;;;;;;;5036069;28;20269;-75
2022/06/19 08:35:14;;;;;;;;;;;;;;;;;;5037173;28;20024;-76
2022/06/19 08:37:42;;;;;;;;;;;;;;;;;;5036372;28;19987;-76
2022/06/19 08:40:13;;;;;;;;;;;;;;;;;;5036652;28;20020;-76
2022/06/19 08:42:47;;;;;;;;;;;;;;;;;;5038129;28;19925;-77
2022/06/19 08:45:30;;;;;;;;;;;;;;;;;;5046147;28;19956;-77
2022/06/19 08:48:04;;;;;;;;;;;;;;;;;;5053273;28;20392;-76
2022/06/19 08:50:34;;;;;;;;;;;;;;;;;;5055826;28;19925;-76
2022/06/19 08:53:08;;;;;;;;;;;;;;;;;;5051420;28;19971;-76
2022/06/19 08:55:38;;;;;;;;;;;;;;;;;;5049232;28;19940;-76
2022/06/19 08:58:08;;;;;;;;;;;;;;;;;;5048288;28;19964;-75
2022/06/19 09:03:27;;;;;;;;;;;;;;;;;;5046609;28;19925;-76
2022/06/19 09:05:58;;;;;;;;;;;;;;;;;;5050882;28;19975;-77
2022/06/19 09:08:47;;;;;;;;;;;;;;;;;;5054874;28;20023;-76
2022/06/19 09:11:21;;;;;;;;;;;;;;;;;;5053932;28;19929;-75
2022/06/19 09:13:55;;;;;;;;;;;;;;;;;;5054692;28;19936;-76
2022/06/19 09:16:28;;;;;;;;;;;;;;;;;;5055188;28;19913;-75
2022/06/19 09:19:02;;;;;;;;;;;;;;;;;;5053106;28;20336;-75
2022/06/19 09:21:32;;;;;;;;;;;;;;;;;;5052356;28;19957;-75
2022/06/19 09:24:13;;;;;;;;;;;;;;;;;;5042744;28;20372;-76
2022/06/19 09:26:44;;;;;;;;;;;;;;;;;;5033619;28;19967;-76
2022/06/19 09:29:12;;;;;;;;;;;;;;;;;;5036755;28;19968;-76
2022/06/19 09:31:42;;;;;;;;;;;;;;;;;;5036342;28;19967;-75
2022/06/19 09:34:12;;;;;;;;;;;;;;;;;;5036484;28;19925;-76
2022/06/19 09:36:41;;;;;;;;;;;;;;;;;;5036047;28;19979;-76
2022/06/19 09:39:13;;;;;;;;;;;;;;;;;;5035548;28;20012;-76
2022/06/19 09:41:41;;;;;;;;;;;;;;;;;;5036318;28;20373;-75
2022/06/19 09:44:13;;;;;;;;;;;;;;;;;;5037829;28;19933;-76
2022/06/19 09:46:44;;;;;;;;;;;;;;;;;;5038657;28;19968;-76
2022/06/19 09:49:14;;;;;;;;;;;;;;;;;;5038521;28;19964;-76
2022/06/19 09:51:46;;;;;;;;;;;;;;;;;;5036948;28;19980;-76
2022/06/19 09:54:14;;;;;;;;;;;;;;;;;;5037041;28;19929;-76
2022/06/19 09:56:44;;;;;;;;;;;;;;;;;;5037163;28;19925;-76
2022/06/19 09:59:13;;;;;;;;;;;;;;;;;;5036978;28;19926;-76
2022/06/19 10:01:42;;;;;;;;;;;;;;;;;;5035546;28;20392;-76
2022/06/19 10:04:12;;;;;;;;;;;;;;;;;;5036775;28;19925;-76
2022/06/19 10:06:40;;;;;;;;;;;;;;;;;;5036095;28;19963;-76
2022/06/19 10:09:15;;;;;;;;;;;;;;;;;;5036099;28;20016;-76
2022/06/19 10:11:43;;;;;;;;;;;;;;;;;;5035700;28;20024;-76
2022/06/19 10:14:13;;;;;;;;;;;;;;;;;;5036657;28;19972;-76
2022/06/19 10:16:45;;;;;;;;;;;;;;;;;;5035538;28;19925;-76
2022/06/19 10:19:13;;;;;;;;;;;;;;;;;;5034222;28;19931;-76
2022/06/19 10:24:36;;;;;;;;;;;;;;;;;;5016197;28;20459;-75
2022/06/19 10:27:04;;;;;;;;;;;;;;;;;;5014289;28;19976;-76
2022/06/19 10:29:38;;;;;;;;;;;;;;;;;;5014011;28;19965;-77
2022/06/19 10:32:20;;;;;;;;;;;;;;;;;;5014557;28;20032;-75
2022/06/19 10:34:52;;;;;;;;;;;;;;;;;;5013820;28;19925;-75
2022/06/19 10:37:23;;;;;;;;;;;;;;;;;;5013960;28;19933;-75
2022/06/19 10:39:55;;;;;;;;;;;;;;;;;;5013904;28;20014;-74
2022/06/19 10:42:28;;;;;;;;;;;;;;;;;;5014238;28;20356;-75
2022/06/19 10:45:08;;;;;;;;;;;;;;;;;;5014150;28;19957;-75
2022/06/19 10:47:45;;;;;;;;;;;;;;;;;;5013718;28;19972;-76
2022/06/19 10:50:15;;;;;;;;;;;;;;;;;;5013646;28;20266;-75
2022/06/19 10:52:47;;;;;;;;;;;;;;;;;;5013678;28;19926;-76
2022/06/19 10:55:21;;;;;;;;;;;;;;;;;;5014025;28;19930;-75
2022/06/19 10:57:57;;;;;;;;;;;;;;;;;;5013229;28;20446;-75
2022/06/19 11:00:24;;;;;;;;;;;;;;;;;;5013258;28;19929;-76
2022/06/19 11:05:42;;;;;;;;;;;;;;;;;;5013342;28;19933;-76
2022/06/19 11:08:09;;;;;;;;;;;;;;;;;;5013663;28;19925;-75
2022/06/19 11:10:41;;;;;;;;;;;;;;;;;;5012391;28;20311;-75
2022/06/19 11:13:08;;;;;;;;;;;;;;;;;;5013228;28;19926;-76
2022/06/19 11:15:36;;;;;;;;;;;;;;;;;;5013117;28;20020;-75
2022/06/19 11:18:25;;;;;;;;;;;;;;;;;;5012978;28;20013;-75
2022/06/19 11:20:58;;;;;;;;;;;;;;;;;;5009719;28;20008;-75
2022/06/19 11:23:26;;;;;;;;;;;;;;;;;;5013059;28;19980;-75
2022/06/19 11:25:59;;;;;;;;;;;;;;;;;;5012862;28;20440;-79
2022/06/19 11:28:37;;;;;;;;;;;;;;;;;;5013988;28;19975;-78
2022/06/19 11:31:08;;;;;;;;;;;;;;;;;;5013263;28;19926;-75
2022/06/19 11:33:36;;;;;;;;;;;;;;;;;;5013178;28;19987;-75
2022/06/19 11:36:05;;;;;;;;;;;;;;;;;;5012254;28;19926;-76
2022/06/19 11:38:34;;;;;;;;;;;;;;;;;;5012671;28;19976;-75
2022/06/19 11:41:00;;;;;;;;;;;;;;;;;;5012517;28;20016;-75
2022/06/19 11:43:29;;;;;;;;;;;;;;;;;;5012586;28;20459;-76
2022/06/19 11:46:00;;;;;;;;;;;;;;;;;;5012725;28;19925;-76
2022/06/19 11:48:27;;;;;;;;;;;;;;;;;;5012604;28;19983;-76
2022/06/19 11:50:55;;;;;;;;;;;;;;;;;;5012117;28;19972;-75
2022/06/19 11:53:24;;;;;;;;;;;;;;;;;;5012348;28;19926;-75
2022/06/19 11:55:51;;;;;;;;;;;;;;;;;;5012643;28;19987;-75
2022/06/19 11:58:22;;;;;;;;;;;;;;;;;;5012653;28;19933;-76
2022/06/19 12:00:56;;;;;;;;;;;;;;;;;;5032122;28;19976;-76
2022/06/19 12:03:29;;;;;;;;;;;;;;;;;;5032610;28;20356;-75
2022/06/19 12:05:59;;;;;;;;;;;;;;;;;;5032351;28;20020;-76
2022/06/19 12:08:28;;;;;;;;;;;;;;;;;;5032097;28;19983;-76
2022/06/19 12:10:56;;;;;;;;;;;;;;;;;;5032238;28;20011;-75
2022/06/19 12:13:24;;;;;;;;;;;;;;;;;;5031642;28;20348;-77
2022/06/19 12:15:55;;;;;;;;;;;;;;;;;;5032121;28;19929;-76
2022/06/19 12:18:22;;;;;;;;;;;;;;;;;;5032495;28;20280;-77
2022/06/19 12:20:56;;;;;;;;;;;;;;;;;;5031814;28;19925;-76
2022/06/19 12:23:24;;;;;;;;;;;;;;;;;;5031840;28;20415;-77
2022/06/19 12:25:54;;;;;;;;;;;;;;;;;;5032023;28;19932;-76
2022/06/19 12:28:24;;;;;;;;;;;;;;;;;;5031868;28;19925;-76
2022/06/19 12:30:54;;;;;;;;;;;;;;;;;;5032218;28;19979;-76
2022/06/19 12:33:24;;;;;;;;;;;;;;;;;;5032194;28;19924;-77
2022/06/19 12:35:51;;;;;;;;;;;;;;;;;;5032856;28;20011;-77
2022/06/19 12:38:18;;;;;;;;;;;;;;;;;;5033428;28;19929;-77
2022/06/19 12:40:53;;;;;;;;;;;;;;;;;;5033431;28;20004;-76
2022/06/19 12:43:24;;;;;;;;;;;;;;;;;;5031177;28;20004;-77
2022/06/19 12:45:54;;;;;;;;;;;;;;;;;;5042642;28;20024;-77
2022/06/19 12:48:26;;;;;;;;;;;;;;;;;;5054410;28;20284;-77
2022/06/19 12:50:56;;;;;;;;;;;;;;;;;;5053912;28;20432;-77
2022/06/19 12:53:38;;;;;;;;;;;;;;;;;;5055177;28;19976;-77
2022/06/19 12:56:09;;;;;;;;;;;;;;;;;;5056670;28;20458;-76
2022/06/19 12:58:45;;;;;;;;;;;;;;;;;;5052641;28;19925;-77
2022/06/19 13:01:15;;;;;;;;;;;;;;;;;;5033917;28;19983;-77
2022/06/19 13:03:45;;;;;;;;;;;;;;;;;;5032703;28;19931;-76
2022/06/19 13:06:20;;;;;;;;;;;;;;;;;;5032873;28;20575;-77
2022/06/19 13:08:51;;;;;;;;;;;;;;;;;;5034858;28;19925;-77
2022/06/19 13:11:24;;;;;;;;;;;;;;;;;;5034290;28;19968;-77
2022/06/19 13:13:57;;;;;;;;;;;;;;;;;;5035599;28;20414;-74
2022/06/19 13:16:27;;;;;;;;;;;;;;;;;;5034377;28;20008;-76
2022/06/19 13:18:59;;;;;;;;;;;;;;;;;;5033976;28;19925;-76
2022/06/19 13:21:31;;;;;;;;;;;;;;;;;;5033371;28;19976;-76
2022/06/19 13:24:10;;;;;;;;;;;;;;;;;;5033343;28;20020;-75
2022/06/19 13:29:33;;;;;;;;;;;;;;;;;;5032763;28;20330;-77
2022/06/19 13:32:05;;;;;;;;;;;;;;;;;;5033185;28;19932;-76
2022/06/19 13:34:48;;;;;;;;;;;;;;;;;;5033295;28;19972;-75
2022/06/19 13:37:18;;;;;;;;;;;;;;;;;;5033078;28;20019;-75
2022/06/19 13:39:48;;;;;;;;;;;;;;;;;;5032200;28;20020;-76
2022/06/19 13:42:29;;;;;;;;;;;;;;;;;;5033414;28;19925;-76
2022/06/19 13:45:03;;;;;;;;;;;;;;;;;;5033655;28;19926;-77
2022/06/19 13:47:33;;;;;;;;;;;;;;;;;;5033754;28;20441;-76
2022/06/19 13:50:01;;;;;;;;;;;;;;;;;;5033496;28;19997;-77
2022/06/19 13:52:35;;;;;;;;;;;;;;;;;;5032902;28;19975;-76
2022/06/19 13:55:06;;;;;;;;;;;;;;;;;;5032498;28;20411;-76
2022/06/19 13:57:36;;;;;;;;;;;;;;;;;;5031631;28;19960;-76
2022/06/19 14:00:19;;;;;;;;;;;;;;;;;;5032693;28;19990;-77
2022/06/19 14:03:05;;;;;;;;;;;;;;;;;;5030732;28;20372;-76
2022/06/19 14:05:35;;;;;;;;;;;;;;;;;;5032484;28;20388;-76
2022/06/19 14:08:07;;;;;;;;;;;;;;;;;;5032597;28;19961;-76
2022/06/19 14:10:37;;;;;;;;;;;;;;;;;;5032273;28;19975;-77
2022/06/19 14:13:06;;;;;;;;;;;;;;;;;;5031862;28;20004;-75
2022/06/19 14:15:39;;;;;;;;;;;;;;;;;;5033090;28;20004;-76
2022/06/19 14:18:12;;;;;;;;;;;;;;;;;;5029784;28;19925;-77
2022/06/19 14:20:44;;;;;;;;;;;;;;;;;;5031421;28;19929;-76
2022/06/19 14:23:15;;;;;;;;;;;;;;;;;;5031647;28;19925;-76
2022/06/19 14:25:45;;;;;;;;;;;;;;;;;;5033866;28;19980;-77
2022/06/19 14:28:16;;;;;;;;;;;;;;;;;;5033730;28;20410;-76
2022/06/19 14:30:44;;;;;;;;;;;;;;;;;;5032634;28;20654;-77
2022/06/19 14:33:30;;;;;;;;;;;;;;;;;;5033186;28;19960;-77
2022/06/19 14:36:03;;;;;;;;;;;;;;;;;;5032150;28;19925;-77
2022/06/19 14:38:33;;;;;;;;;;;;;;;;;;5033415;28;19987;-76
2022/06/19 14:41:02;;;;;;;;;;;;;;;;;;5032340;28;19951;-76
2022/06/19 14:43:46;;;;;;;;;;;;;;;;;;5032541;28;20024;-76
2022/06/19 14:46:31;;;;;;;;;;;;;;;;;;5031638;28;20028;-76
2022/06/19 14:49:16;;;;;;;;;;;;;;;;;;5032919;28;19983;-77
2022/06/19 14:51:47;;;;;;;;;;;;;;;;;;5033292;28;20043;-76
2022/06/19 14:54:22;;;;;;;;;;;;;;;;;;5036658;22;20486;-76
2022/06/19 14:57:09;;;;;;;;;;;;;;;;;;5012515;28;19956;-76
2022/06/19 14:59:38;;;;;;;;;;;;;;;;;;5037875;28;19972;-76
2022/06/19 15:02:13;;;;;;;;;;;;;;;;;;5051870;28;20023;-78
2022/06/19 15:04:43;;;;;;;;;;;;;;;;;;5052182;28;20015;-77
2022/06/19 15:07:24;;;;;;;;;;;;;;;;;;5054417;28;20023;-77
2022/06/19 15:09:52;;;;;;;;;;;;;;;;;;5053181;28;20582;-80
2022/06/19 15:12:22;;;;;;;;;;;;;;;;;;5052898;28;20434;-76
2022/06/19 15:14:50;;;;;;;;;;;;;;;;;;5052863;28;20023;-76
2022/06/19 15:17:24;;;;;;;;;;;;;;;;;;5036159;28;20020;-77
2022/06/19 15:19:54;;;;;;;;;;;;;;;;;;5031333;28;20024;-77
2022/06/19 15:22:35;;;;;;;;;;;;;;;;;;5031242;28;20498;-77
2022/06/19 15:25:12;;;;;;;;;;;;;;;;;;5032008;28;19925;-77
2022/06/19 15:27:39;;;;;;;;;;;;;;;;;;5032101;28;19965;-77
2022/06/19 15:30:31;;;;;;;;;;;;;;;;;;5031246;28;20002;-78
2022/06/19 15:32:59;;;;;;;;;;;;;;;;;;5031834;28;19937;-78
2022/06/19 15:35:43;;;;;;;;;;;;;;;;;;5031379;28;20008;-77
2022/06/19 15:38:24;;;;;;;;;;;;;;;;;;5033157;28;19925;-77
2022/06/19 15:40:51;;;;;;;;;;;;;;;;;;5032557;28;19991;-78
2022/06/19 15:43:35;;;;;;;;;;;;;;;;;;5035044;28;19971;-78
2022/06/19 15:46:03;;;;;;;;;;;;;;;;;;5035531;28;19959;-80
2022/06/19 15:48:38;;;;;;;;;;;;;;;;;;5037982;28;19952;-78
2022/06/19 15:51:09;;;;;;;;;;;;;;;;;;5052979;28;19999;-78
2022/06/19 15:53:46;;;;;;;;;;;;;;;;;;5053145;28;19924;-78
2022/06/19 15:56:22;;;;;;;;;;;;;;;;;;5052639;28;19929;-79
2022/06/19 15:58:51;;;;;;;;;;;;;;;;;;5047470;28;19964;-77
2022/06/19 16:01:24;;;;;;;;;;;;;;;;;;5029712;28;19998;-77
2022/06/19 16:03:52;;;;;;;;;;;;;;;;;;5033139;28;19932;-76
2022/06/19 16:06:20;;;;;;;;;;;;;;;;;;5030673;28;19929;-77
2022/06/19 16:08:50;;;;;;;;;;;;;;;;;;5030634;28;19979;-77
2022/06/19 16:11:26;;;;;;;;;;;;;;;;;;5029807;28;19987;-77
2022/06/19 16:13:55;;;;;;;;;;;;;;;;;;5030435;28;20012;-77
2022/06/19 16:16:23;;;;;;;;;;;;;;;;;;5032163;28;19925;-77
2022/06/19 16:19:06;;;;;;;;;;;;;;;;;;5030488;28;19932;-77
2022/06/19 16:21:35;;;;;;;;;;;;;;;;;;5033389;28;20020;-76
2022/06/19 16:24:04;;;;;;;;;;;;;;;;;;5034150;28;19925;-76
2022/06/19 16:26:32;;;;;;;;;;;;;;;;;;5034986;28;20036;-76
2022/06/19 16:29:00;;;;;;;;;;;;;;;;;;5035921;28;19979;-77
2022/06/19 16:31:28;;;;;;;;;;;;;;;;;;5035074;28;19932;-77
2022/06/19 16:33:56;;;;;;;;;;;;;;;;;;5034552;28;20376;-78
2022/06/19 16:45:09;;;;;;;;;;;;;;;;;;5034118;28;19932;-76
2022/06/19 16:47:36;;;;;;;;;;;;;;;;;;5034663;28;19987;-76
2022/06/19 16:50:06;;;;;;;;;;;;;;;;;;5034268;28;19976;-76
2022/06/19 16:52:33;;;;;;;;;;;;;;;;;;5034632;28;20023;-76
2022/06/19 16:55:04;;;;;;;;;;;;;;;;;;5034870;28;19925;-77
2022/06/19 16:57:32;;;;;;;;;;;;;;;;;;5035359;28;19925;-76
2022/06/19 17:00:00;;;;;;;;;;;;;;;;;;5051836;28;19956;-76
2022/06/19 17:02:30;;;;;;;;;;;;;;;;;;5056748;28;20280;-77
2022/06/19 17:04:58;;;;;;;;;;;;;;;;;;5045477;28;19932;-76
2022/06/19 17:07:25;;;;;;;;;;;;;;;;;;5025632;28;19931;-76
2022/06/19 17:09:58;;;;;;;;;;;;;;;;;;5035105;28;19925;-76
2022/06/19 17:12:27;;;;;;;;;;;;;;;;;;5034278;28;19929;-76
2022/06/19 17:14:55;;;;;;;;;;;;;;;;;;5033563;28;19995;-76
2022/06/19 17:17:23;;;;;;;;;;;;;;;;;;5033411;28;20004;-76
2022/06/19 17:19:51;;;;;;;;;;;;;;;;;;5032813;28;20391;-76
2022/06/19 17:22:19;;;;;;;;;;;;;;;;;;5033271;28;19925;-76
2022/06/19 17:24:52;;;;;;;;;;;;;;;;;;5033018;28;19979;-76
2022/06/19 17:27:22;;;;;;;;;;;;;;;;;;5033416;28;19937;-76